Briarcliff Manor, NY

11:58 PM EDT on July 02, 2015 (GMT -0400)
Chillmark | | Change Station
CLOSE
Current Station
Personal Weather Station
Location: Briarcliff Manor, NY
Elevation: 344 ft
Nearby Weather Stations

Elev 344 ft 41.15 °N, 73.85 °W | Updated 9 seconds ago

Mostly Cloudy
Mostly Cloudy
67.8 °F
Feels Like 67.8 °F
N
0.0
Wind Variable Wind from ENE
Gusts 0.0 mph

Today
High -- | Low -- °F
--% Chance of Precip.
Yesterday
High -- | Low -- °F
Precip. -- in
5:26 AM 8:31 PM
Full, 99% visible
Pressure 29.87 in
Visibility 9.0 miles
Clouds Clear
Dew Point 65 °F
Humidity 89%
Rainfall in
Snow Depth Not available.
UV 0.0 out of 12
Pollen 4.70 out of 12
Air Quality Not available.
Flu Activity Not available.
METAR KHPN 030356Z 31003KT 9SM CLR 20/18 A2989 RMK AO2 SLP114 T02000178 $

More Conditions Fewer Conditions

Pressure 29.87 in
Visibility 9.0 miles
Clouds Clear
Dew Point 65 °F
Humidity 89%
Rainfall in
Snow Depth Not available.
UV 0.0 out of 12
Pollen 4.70 out of 12
Air Quality Not available.
Flu Activity Not available.
METAR KHPN 030356Z 31003KT 9SM CLR 20/18 A2989 RMK AO2 SLP114 T02000178 $

More Conditions Fewer Conditions

10-Day Weather Forecast

×

Almanac

Astronomy

Jul. 02, 2015 Rise Set
Actual Time
Civil Twilight
Nautical Twilight
Astronomical Twilight
Moon
Length of Visible Light
Length of Day
Tomorrow will be .
, % of the Moon is Illuminated

Today's Extremes

State Highs State Lows

Community

WunderPhotos

Upload Photos

1,834,615 photos uploaded!

WunderBlogs® & News

Nearby

Air Quality

  Air Quality AQ Index Pollutant
Not available.

Snow Depth

Station Depth Elevation

Earthquake Activity

City Distance Mag. Time & Date
Minimum magnitude displayed is 2.5.

Coastal Water Temperatures

Place Temperature

Stations

Nearby Weather Stations

Station Location Temp. Windchill Dew Point Humidity Wind Precip. Elev Updated Type